Time;durP1;ratioP1;P1;durP2;ratioP2;P2;SDS_P1;SDS_P2;PMS_P1;PMS_P2;Temp;Humidity;BMP_temperature;BMP_pressure;BME280_temperature;BME280_humidity;BME280_pressure;Samples;Min_cycle;Max_cycle;Signal;HPM_P1;HPM_P2
2023/06/26 00:00:59;;;;;;;;;;;;;;;18.00;87.50;95885.03;5040799;28;20280;-75
2023/06/26 00:03:28;;;;;;;;;;;;;;;18.02;87.70;95877.88;5048945;28;19952;-75
2023/06/26 00:05:58;;;;;;;;;;;;;;;18.05;87.23;95879.34;5049815;28;19929;-75
2023/06/26 00:08:24;;;;;;;;;;;;;;;17.94;88.78;95876.88;5046608;28;19964;-75
2023/06/26 00:10:51;;;;;;;;;;;;;;;18.07;87.68;95874.81;5048304;28;19939;-75
2023/06/26 00:13:18;;;;;;;;;;;;;;;18.02;88.51;95874.38;5051629;28;19925;-75
2023/06/26 00:15:45;;;;;;;;;;;;;;;17.79;90.64;95876.47;5050706;28;19959;-75
2023/06/26 00:18:11;;;;;;;;;;;;;;;17.74;90.70;95874.25;5051845;28;19925;-75
2023/06/26 00:20:37;;;;;;;;;;;;;;;17.62;92.02;95875.34;5042802;28;20346;-75
2023/06/26 00:23:07;;;;;;;;;;;;;;;17.58;91.62;95873.97;5053127;28;19932;-75
2023/06/26 00:25:33;;;;;;;;;;;;;;;17.44;93.94;95883.03;5049280;28;19925;-75
2023/06/26 00:28:00;;;;;;;;;;;;;;;17.49;93.19;95875.59;5053346;28;19932;-75
2023/06/26 00:30:27;;;;;;;;;;;;;;;17.55;92.30;95887.34;5048976;28;20046;-75
2023/06/26 00:32:53;;;;;;;;;;;;;;;17.35;94.35;95886.47;5050348;28;20345;-75
2023/06/26 00:35:20;;;;;;;;;;;;;;;17.39;94.53;95888.69;5048678;28;19933;-75
2023/06/26 00:37:46;;;;;;;;;;;;;;;17.57;92.59;95883.59;5052653;28;19933;-75
2023/06/26 00:40:13;;;;;;;;;;;;;;;17.45;93.69;95889.09;5050644;28;20363;-75
2023/06/26 00:42:39;;;;;;;;;;;;;;;17.59;92.87;95886.91;5045820;28;19928;-75
2023/06/26 00:45:06;;;;;;;;;;;;;;;17.69;91.11;95879.06;5050551;28;19933;-75
2023/06/26 00:47:33;;;;;;;;;;;;;;;17.73;91.25;95877.00;5045411;28;19970;-75
2023/06/26 00:50:00;;;;;;;;;;;;;;;17.73;91.12;95874.38;5049339;28;19940;-75
2023/06/26 00:52:26;;;;;;;;;;;;;;;17.71;91.41;95873.69;5044285;28;20445;-75
2023/06/26 00:54:53;;;;;;;;;;;;;;;17.73;91.05;95877.00;5048940;28;19925;-75
2023/06/26 00:57:19;;;;;;;;;;;;;;;17.80;90.63;95867.66;5048380;28;20405;-75
2023/06/26 00:59:46;;;;;;;;;;;;;;;17.65;92.50;95875.09;5044715;28;19970;-75
2023/06/26 01:02:12;;;;;;;;;;;;;;;17.65;92.15;95877.69;5047672;28;19925;-75
2023/06/26 01:04:46;;;;;;;;;;;;;;;17.61;91.34;95878.91;5048196;28;19963;-75
2023/06/26 01:07:12;;;;;;;;;;;;;;;17.28;94.90;95878.34;5047767;28;19971;-75
2023/06/26 01:09:39;;;;;;;;;;;;;;;17.29;94.22;95881.78;5050166;28;19955;-75
2023/06/26 01:12:05;;;;;;;;;;;;;;;17.30;94.06;95888.66;5044103;28;20028;-75
2023/06/26 01:14:32;;;;;;;;;;;;;;;17.26;94.35;95876.81;5050697;28;19932;-75
2023/06/26 01:16:59;;;;;;;;;;;;;;;17.17;94.17;95878.44;5044503;28;19925;-75
2023/06/26 01:19:28;;;;;;;;;;;;;;;17.08;95.61;95876.63;5045615;28;19924;-75
2023/06/26 01:21:59;;;;;;;;;;;;;;;17.04;94.90;95870.81;5048694;28;20038;-75
2023/06/26 01:24:27;;;;;;;;;;;;;;;17.01;96.68;95872.88;5050791;28;20414;-75
2023/06/26 01:26:55;;;;;;;;;;;;;;;16.88;97.23;95870.50;5049624;28;19978;-75
2023/06/26 01:29:23;;;;;;;;;;;;;;;16.84;97.89;95869.13;5044129;28;19926;-76
2023/06/26 01:31:50;;;;;;;;;;;;;;;16.80;98.31;95863.31;5048740;28;19939;-76
2023/06/26 01:34:17;;;;;;;;;;;;;;;16.89;97.64;95862.53;5046827;28;19924;-76
2023/06/26 01:36:44;;;;;;;;;;;;;;;16.84;99.13;95854.25;5050377;28;19974;-76
2023/06/26 01:39:10;;;;;;;;;;;;;;;16.82;97.04;95860.56;5049183;28;19926;-75
2023/06/26 01:41:37;;;;;;;;;;;;;;;16.70;97.75;95852.78;5036495;28;19933;-76
2023/06/26 01:44:12;;;;;;;;;;;;;;;16.49;100.00;95857.22;5047230;28;19986;-76
2023/06/26 01:46:41;;;;;;;;;;;;;;;16.41;99.96;95851.84;5044104;28;19925;-75
2023/06/26 01:49:10;;;;;;;;;;;;;;;16.35;100.00;95850.56;5042323;28;19924;-75
2023/06/26 01:51:39;;;;;;;;;;;;;;;16.38;100.00;95852.09;5043115;28;20020;-75
2023/06/26 01:54:09;;;;;;;;;;;;;;;16.28;100.00;95852.06;5049172;28;20329;-75
2023/06/26 01:56:36;;;;;;;;;;;;;;;16.35;100.00;95849.72;5038444;28;19925;-75
2023/06/26 01:59:05;;;;;;;;;;;;;;;16.38;100.00;95854.69;5039683;28;20617;-75
2023/06/26 02:01:33;;;;;;;;;;;;;;;16.44;100.00;95854.19;5046101;28;19929;-75
2023/06/26 02:03:59;;;;;;;;;;;;;;;16.49;100.00;95846.78;5044543;28;19933;-75
2023/06/26 02:06:25;;;;;;;;;;;;;;;16.49;100.00;95846.78;5048676;28;19929;-75
2023/06/26 02:08:52;;;;;;;;;;;;;;;16.48;100.00;95844.31;5049361;28;20003;-75
2023/06/26 02:11:18;;;;;;;;;;;;;;;16.40;100.00;95855.41;5048891;28;19925;-75
2023/06/26 02:13:45;;;;;;;;;;;;;;;16.39;100.00;95851.97;5044346;28;19972;-75
2023/06/26 02:16:11;;;;;;;;;;;;;;;16.36;100.00;95861.84;5049334;28;20298;-75
2023/06/26 02:18:39;;;;;;;;;;;;;;;16.22;100.00;95852.56;5042787;28;19983;-75
2023/06/26 02:21:06;;;;;;;;;;;;;;;16.24;100.00;95861.09;5043854;28;19954;-77
2023/06/26 02:23:32;;;;;;;;;;;;;;;16.16;100.00;95853.06;5046557;28;19926;-75
2023/06/26 02:25:59;;;;;;;;;;;;;;;16.07;100.00;95852.06;5045333;28;19925;-75
2023/06/26 02:28:25;;;;;;;;;;;;;;;16.02;100.00;95851.63;5048304;28;19932;-75
2023/06/26 02:30:51;;;;;;;;;;;;;;;15.91;100.00;95851.69;5041931;28;19971;-75
2023/06/26 02:33:17;;;;;;;;;;;;;;;15.93;100.00;95854.97;5046335;28;20333;-76
2023/06/26 02:35:45;;;;;;;;;;;;;;;15.97;100.00;95849.38;5043530;28;19929;-75
2023/06/26 02:38:12;;;;;;;;;;;;;;;15.97;100.00;95851.16;5046885;28;19932;-75
2023/06/26 02:40:39;;;;;;;;;;;;;;;15.99;100.00;95851.88;5037720;28;19979;-75
2023/06/26 02:43:05;;;;;;;;;;;;;;;15.89;100.00;95850.97;5045976;28;19928;-75
2023/06/26 02:45:31;;;;;;;;;;;;;;;15.82;100.00;95847.19;5046694;28;19925;-75
2023/06/26 02:47:58;;;;;;;;;;;;;;;15.80;100.00;95846.50;5050657;28;19936;-75
2023/06/26 02:50:24;;;;;;;;;;;;;;;15.74;100.00;95847.84;5046218;28;20476;-75
2023/06/26 02:52:52;;;;;;;;;;;;;;;15.80;100.00;95847.34;5041475;28;19925;-75
2023/06/26 02:55:18;;;;;;;;;;;;;;;15.91;100.00;95844.66;5038727;28;19955;-75
2023/06/26 02:57:45;;;;;;;;;;;;;;;16.02;100.00;95837.69;5049386;28;19937;-75
2023/06/26 03:00:11;;;;;;;;;;;;;;;16.05;100.00;95846.13;5053338;28;19932;-75
2023/06/26 03:02:38;;;;;;;;;;;;;;;16.00;100.00;95845.69;5040350;28;20023;-76
2023/06/26 03:05:05;;;;;;;;;;;;;;;15.97;100.00;95851.97;5047949;28;19983;-76
2023/06/26 03:07:31;;;;;;;;;;;;;;;15.93;100.00;95854.97;5042147;28;19925;-76
2023/06/26 03:09:59;;;;;;;;;;;;;;;15.96;100.00;95852.94;5047560;28;19929;-76
2023/06/26 03:12:26;;;;;;;;;;;;;;;16.06;100.00;95853.03;5042472;28;19925;-76
2023/06/26 03:14:52;;;;;;;;;;;;;;;16.16;100.00;95859.09;5051115;28;19967;-76
2023/06/26 03:17:18;;;;;;;;;;;;;;;16.24;100.00;95858.50;5045316;28;19925;-76
2023/06/26 03:19:44;;;;;;;;;;;;;;;16.27;100.00;95849.53;5052502;28;20279;-75
2023/06/26 03:22:11;;;;;;;;;;;;;;;16.20;100.00;95857.91;5046530;28;19964;-76
2023/06/26 03:24:37;;;;;;;;;;;;;;;16.23;100.00;95851.59;5046653;28;19941;-76
2023/06/26 03:27:05;;;;;;;;;;;;;;;16.21;100.00;95848.28;5050900;28;20410;-75
2023/06/26 03:29:31;;;;;;;;;;;;;;;16.15;100.00;95859.25;5048444;28;19925;-76
2023/06/26 03:31:57;;;;;;;;;;;;;;;15.94;100.00;95854.00;5047385;28;19929;-76
2023/06/26 03:34:24;;;;;;;;;;;;;;;15.76;100.00;95858.13;5050181;28;20128;-76
2023/06/26 03:36:50;;;;;;;;;;;;;;;15.60;100.00;95864.59;5050083;28;19933;-75
2023/06/26 03:39:16;;;;;;;;;;;;;;;15.40;100.00;95861.00;5052474;28;19925;-76
2023/06/26 03:41:42;;;;;;;;;;;;;;;15.28;100.00;95858.53;5053056;28;19933;-75
2023/06/26 03:44:10;;;;;;;;;;;;;;;15.24;100.00;95853.56;5051700;28;19940;-75
2023/06/26 03:46:36;;;;;;;;;;;;;;;15.26;100.00;95850.81;5048416;28;19925;-75
2023/06/26 03:49:03;;;;;;;;;;;;;;;15.33;100.00;95854.59;5051759;28;19925;-75
2023/06/26 03:51:29;;;;;;;;;;;;;;;15.32;100.00;95850.34;5049459;28;20331;-75
2023/06/26 03:53:55;;;;;;;;;;;;;;;15.18;100.00;95851.44;5046908;28;19925;-76
2023/06/26 03:56:21;;;;;;;;;;;;;;;15.15;100.00;95861.28;5048279;28;19929;-75
2023/06/26 03:58:48;;;;;;;;;;;;;;;15.19;100.00;95863.53;5045906;28;20298;-75
2023/06/26 04:01:15;;;;;;;;;;;;;;;15.31;100.00;95858.28;5048992;28;20034;-76
2023/06/26 04:03:42;;;;;;;;;;;;;;;15.39;100.00;95864.56;5050864;28;19933;-76
2023/06/26 04:06:09;;;;;;;;;;;;;;;15.38;100.00;95856.84;5048090;28;19932;-76
2023/06/26 04:08:35;;;;;;;;;;;;;;;15.35;100.00;95862.28;5041701;28;19925;-76
2023/06/26 04:11:02;;;;;;;;;;;;;;;15.30;100.00;95864.47;5052538;28;19925;-76
2023/06/26 04:13:28;;;;;;;;;;;;;;;15.32;100.00;95862.56;5048370;28;20383;-75
2023/06/26 04:15:54;;;;;;;;;;;;;;;15.38;100.00;95860.28;5043599;28;19951;-75
2023/06/26 04:18:22;;;;;;;;;;;;;;;15.44;100.00;95862.41;5046254;28;19925;-75
2023/06/26 04:21:03;;;;;;;;;;;;;;;15.52;100.00;95866.16;5046731;28;19929;-75
2023/06/26 04:23:30;;;;;;;;;;;;;;;15.71;100.00;95863.75;5050973;28;19947;-76
2023/06/26 04:25:58;;;;;;;;;;;;;;;15.81;100.00;95864.66;5047599;28;19932;-75
2023/06/26 04:28:24;;;;;;;;;;;;;;;15.82;100.00;95861.09;5043828;28;19929;-76
2023/06/26 04:30:50;;;;;;;;;;;;;;;15.92;100.00;95853.31;5042438;28;19931;-76
2023/06/26 04:33:16;;;;;;;;;;;;;;;15.97;100.00;95859.81;5043413;28;19982;-76
2023/06/26 04:35:44;;;;;;;;;;;;;;;16.06;100.00;95863.47;5044853;28;19925;-75
2023/06/26 04:38:11;;;;;;;;;;;;;;;16.12;100.00;95865.56;5047530;28;19929;-75
2023/06/26 04:40:37;;;;;;;;;;;;;;;16.20;100.00;95863.16;5048540;28;20306;-75
2023/06/26 04:43:03;;;;;;;;;;;;;;;16.31;100.00;95867.44;5045191;28;19940;-75
2023/06/26 04:45:30;;;;;;;;;;;;;;;16.39;100.00;95859.00;5046289;28;19940;-75
2023/06/26 04:47:56;;;;;;;;;;;;;;;16.47;100.00;95859.16;5048542;28;19925;-75
2023/06/26 04:50:23;;;;;;;;;;;;;;;16.59;100.00;95852.06;5045710;28;20031;-75
2023/06/26 04:52:50;;;;;;;;;;;;;;;16.70;100.00;95858.00;5045344;28;20453;-75
2023/06/26 04:55:17;;;;;;;;;;;;;;;16.87;100.00;95859.22;5040349;28;19932;-75
2023/06/26 04:57:43;;;;;;;;;;;;;;;17.04;100.00;95852.50;5042008;28;19929;-75
2023/06/26 05:00:10;;;;;;;;;;;;;;;17.20;100.00;95859.00;5051068;28;19929;-75
2023/06/26 05:02:37;;;;;;;;;;;;;;;17.30;100.00;95855.44;5049925;28;20063;-75
2023/06/26 05:05:03;;;;;;;;;;;;;;;17.39;100.00;95846.81;5051586;28;19986;-75
2023/06/26 05:07:30;;;;;;;;;;;;;;;17.47;99.67;95853.16;5042503;28;19975;-75
2023/06/26 05:09:57;;;;;;;;;;;;;;;17.55;98.51;95853.28;5046523;28;19925;-75
2023/06/26 05:12:23;;;;;;;;;;;;;;;17.60;97.36;95851.06;5048889;28;19925;-75
2023/06/26 05:14:50;;;;;;;;;;;;;;;17.65;97.35;95854.94;5049066;28;19925;-75
2023/06/26 05:17:16;;;;;;;;;;;;;;;17.65;96.42;95841.84;5051490;28;20298;-75
2023/06/26 05:19:42;;;;;;;;;;;;;;;17.77;96.32;95855.66;5049340;28;19924;-76
2023/06/26 05:22:09;;;;;;;;;;;;;;;17.79;95.66;95852.91;5048810;28;19931;-76
2023/06/26 05:24:36;;;;;;;;;;;;;;;17.75;94.51;95854.09;5038448;28;20007;-76
2023/06/26 05:27:04;;;;;;;;;;;;;;;17.89;94.47;95851.09;5042270;28;19990;-76
2023/06/26 05:29:31;;;;;;;;;;;;;;;18.00;94.36;95853.56;5048556;28;19925;-78
2023/06/26 05:31:57;;;;;;;;;;;;;;;18.04;93.89;95849.72;5051650;28;19929;-77
2023/06/26 05:34:25;;;;;;;;;;;;;;;18.00;94.21;95843.09;5048348;28;20221;-73
2023/06/26 05:36:52;;;;;;;;;;;;;;;18.18;92.89;95848.44;5044857;28;20024;-73
2023/06/26 05:39:18;;;;;;;;;;;;;;;18.20;92.87;95849.13;5049630;28;20387;-72
2023/06/26 05:41:45;;;;;;;;;;;;;;;18.26;91.98;95848.56;5050353;28;19958;-72
2023/06/26 05:44:13;;;;;;;;;;;;;;;18.41;91.31;95848.94;5045218;28;20449;-72
2023/06/26 05:46:39;;;;;;;;;;;;;;;18.59;90.77;95849.03;5051406;28;19936;-73
2023/06/26 05:49:05;;;;;;;;;;;;;;;18.83;89.92;95857.22;5048488;28;19960;-71
2023/06/26 05:51:32;;;;;;;;;;;;;;;19.02;88.43;95850.22;5038825;28;19975;-72
2023/06/26 05:53:58;;;;;;;;;;;;;;;19.17;87.82;95853.19;5048398;28;20303;-73
2023/06/26 05:56:25;;;;;;;;;;;;;;;19.29;86.74;95852.03;5046070;28;19935;-75
2023/06/26 05:58:51;;;;;;;;;;;;;;;19.46;85.80;95858.25;5040669;28;19926;-77
2023/06/26 06:01:19;;;;;;;;;;;;;;;19.43;85.90;95848.91;5045601;28;19925;-77
2023/06/26 06:03:46;;;;;;;;;;;;;;;19.69;84.92;95850.78;5038104;28;19964;-76
2023/06/26 06:06:12;;;;;;;;;;;;;;;19.88;84.11;95852.47;5045358;28;19932;-74
2023/06/26 06:08:38;;;;;;;;;;;;;;;20.17;83.22;95854.81;5050519;28;20386;-75
2023/06/26 06:11:05;;;;;;;;;;;;;;;20.38;81.38;95855.28;5046983;28;19994;-75
2023/06/26 06:13:31;;;;;;;;;;;;;;;20.50;81.60;95853.25;5046601;28;19937;-75
2023/06/26 06:15:57;;;;;;;;;;;;;;;20.68;78.93;95858.44;5043911;28;19988;-76
2023/06/26 06:18:25;;;;;;;;;;;;;;;20.67;79.20;95856.81;5036361;28;20441;-75
2023/06/26 06:20:51;;;;;;;;;;;;;;;21.00;81.50;95849.88;5046404;28;19925;-75
2023/06/26 06:23:18;;;;;;;;;;;;;;;21.06;77.93;95857.13;5046804;28;19978;-74
2023/06/26 06:25:44;;;;;;;;;;;;;;;21.23;77.57;95860.66;5044467;28;19986;-75
2023/06/26 06:28:10;;;;;;;;;;;;;;;21.52;76.11;95860.28;5043223;28;19925;-75
2023/06/26 06:30:36;;;;;;;;;;;;;;;21.58;74.95;95859.66;5039818;28;20280;-75
2023/06/26 06:33:03;;;;;;;;;;;;;;;21.77;74.69;95858.50;5049710;28;19924;-75
2023/06/26 06:35:30;;;;;;;;;;;;;;;21.86;75.12;95859.34;5043682;28;19999;-74
2023/06/26 06:37:56;;;;;;;;;;;;;;;22.12;73.40;95853.91;5041794;28;19925;-74
2023/06/26 06:40:23;;;;;;;;;;;;;;;22.07;72.71;95856.22;5049143;28;19928;-75
2023/06/26 06:42:49;;;;;;;;;;;;;;;22.13;72.05;95852.91;5053037;28;20037;-75
2023/06/26 06:45:15;;;;;;;;;;;;;;;22.43;72.15;95860.19;5051889;28;19932;-75
2023/06/26 06:47:41;;;;;;;;;;;;;;;22.59;70.41;95855.84;5043521;28;19925;-75
2023/06/26 06:50:11;;;;;;;;;;;;;;;22.85;69.88;95866.19;5046547;28;20399;-75
2023/06/26 06:52:40;;;;;;;;;;;;;;;23.31;68.29;95859.25;5038815;28;19936;-75
2023/06/26 06:55:08;;;;;;;;;;;;;;;23.43;66.23;95863.16;5053711;28;19932;-75
2023/06/26 06:57:37;;;;;;;;;;;;;;;23.80;67.12;95852.88;5048472;28;19929;-75
2023/06/26 07:00:05;;;;;;;;;;;;;;;24.16;64.60;95858.38;5051018;28;19925;-75
2023/06/26 07:02:31;;;;;;;;;;;;;;;24.47;62.70;95860.94;5051022;28;20395;-75
2023/06/26 07:04:57;;;;;;;;;;;;;;;24.56;59.87;95859.03;5048405;28;19925;-75
2023/06/26 07:07:23;;;;;;;;;;;;;;;24.72;59.54;95858.03;5053475;28;19924;-75
2023/06/26 07:09:51;;;;;;;;;;;;;;;24.74;58.92;95856.88;5054526;28;19933;-75
2023/06/26 07:12:17;;;;;;;;;;;;;;;24.97;57.71;95858.59;5053047;28;20707;-75
2023/06/26 07:14:43;;;;;;;;;;;;;;;25.27;55.43;95857.59;5049277;28;19925;-75
2023/06/26 07:17:10;;;;;;;;;;;;;;;25.38;54.46;95858.13;5054367;28;19929;-76
2023/06/26 07:19:36;;;;;;;;;;;;;;;25.61;53.22;95857.97;5040505;28;19929;-76
2023/06/26 07:22:02;;;;;;;;;;;;;;;25.75;52.79;95859.75;5054390;28;19979;-75
2023/06/26 07:24:28;;;;;;;;;;;;;;;25.90;52.25;95847.28;5052858;28;19939;-75
2023/06/26 07:26:56;;;;;;;;;;;;;;;26.12;49.51;95844.63;5042311;28;19931;-74
2023/06/26 07:29:22;;;;;;;;;;;;;;;26.31;48.39;95841.31;5054376;28;19929;-75
2023/06/26 07:31:49;;;;;;;;;;;;;;;26.50;47.28;95845.97;5051135;28;19929;-76
2023/06/26 07:34:15;;;;;;;;;;;;;;;26.63;46.82;95844.44;5046348;28;19928;-75
2023/06/26 07:36:41;;;;;;;;;;;;;;;26.74;46.41;95842.06;5051518;28;20452;-76
2023/06/26 07:39:07;;;;;;;;;;;;;;;26.91;46.86;95853.16;5053297;28;20350;-76
2023/06/26 07:41:34;;;;;;;;;;;;;;;27.04;45.49;95849.78;5049286;28;19932;-76
2023/06/26 07:44:01;;;;;;;;;;;;;;;26.95;44.10;95853.59;5049334;28;19929;-72
2023/06/26 07:46:27;;;;;;;;;;;;;;;27.02;45.22;95846.47;5049187;28;19932;-75
2023/06/26 07:48:54;;;;;;;;;;;;;;;27.14;45.24;95849.44;5043374;28;20062;-75
2023/06/26 07:51:20;;;;;;;;;;;;;;;27.18;43.81;95856.84;5048685;28;19932;-75
2023/06/26 07:53:46;;;;;;;;;;;;;;;27.19;44.28;95853.16;5052365;28;19964;-76
2023/06/26 07:56:13;;;;;;;;;;;;;;;27.41;44.52;95850.38;5044170;28;19925;-75
2023/06/26 07:58:39;;;;;;;;;;;;;;;27.44;43.84;95852.63;5053577;28;19924;-74
2023/06/26 08:01:07;;;;;;;;;;;;;;;27.53;44.19;95853.28;5044468;28;19932;-74
2023/06/26 08:03:33;;;;;;;;;;;;;;;27.62;44.04;95855.53;5044015;28;19936;-75
2023/06/26 08:05:59;;;;;;;;;;;;;;;27.84;42.29;95847.44;5053875;28;19928;-75
2023/06/26 08:08:25;;;;;;;;;;;;;;;28.03;42.34;95853.81;5049081;28;19975;-74
2023/06/26 08:10:52;;;;;;;;;;;;;;;27.98;42.26;95847.25;5047520;28;20358;-74
2023/06/26 08:13:18;;;;;;;;;;;;;;;28.05;42.17;95847.25;5052491;28;19925;-74
2023/06/26 08:15:44;;;;;;;;;;;;;;;28.11;42.24;95845.66;5052199;28;19928;-71
2023/06/26 08:18:12;;;;;;;;;;;;;;;27.82;41.76;95844.19;5039920;28;19928;-76
2023/06/26 08:20:38;;;;;;;;;;;;;;;27.90;41.59;95850.13;5050604;28;19925;-74
2023/06/26 08:23:05;;;;;;;;;;;;;;;28.03;41.23;95841.31;5050067;28;19983;-74
2023/06/26 08:25:31;;;;;;;;;;;;;;;27.99;41.70;95846.22;5054367;28;19994;-74
2023/06/26 08:27:58;;;;;;;;;;;;;;;27.99;41.31;95837.41;5042678;28;19929;-74
2023/06/26 08:30:27;;;;;;;;;;;;;;;27.85;40.97;95841.09;5048698;28;19936;-73
2023/06/26 08:32:54;;;;;;;;;;;;;;;28.14;42.11;95840.72;5047545;28;19925;-73
2023/06/26 08:35:21;;;;;;;;;;;;;;;28.15;40.54;95842.38;5052249;28;19932;-73
2023/06/26 08:37:48;;;;;;;;;;;;;;;28.09;39.71;95845.84;5047959;28;20037;-73
2023/06/26 08:40:17;;;;;;;;;;;;;;;28.16;40.86;95844.00;5049189;28;19929;-74
2023/06/26 08:42:43;;;;;;;;;;;;;;;28.37;39.95;95844.84;5045718;28;19929;-73
2023/06/26 08:45:09;;;;;;;;;;;;;;;28.51;39.85;95838.47;5051847;28;19974;-74
2023/06/26 08:47:37;;;;;;;;;;;;;;;28.43;39.19;95838.69;5047018;28;19959;-74
2023/06/26 08:50:07;;;;;;;;;;;;;;;28.35;39.11;95837.03;5048718;28;19932;-73
2023/06/26 08:52:37;;;;;;;;;;;;;;;28.50;39.46;95831.53;5038926;28;19928;-74
2023/06/26 08:55:03;;;;;;;;;;;;;;;28.67;40.07;95838.06;5040167;28;19932;-74
2023/06/26 08:57:31;;;;;;;;;;;;;;;28.91;40.17;95844.56;5043692;28;19933;-74
2023/06/26 08:59:57;;;;;;;;;;;;;;;29.28;38.87;95838.72;5052888;28;19928;-74
2023/06/26 09:02:24;;;;;;;;;;;;;;;29.37;36.94;95848.97;5050938;28;20448;-75
2023/06/26 09:04:50;;;;;;;;;;;;;;;29.46;36.77;95840.72;5045620;28;19978;-74
2023/06/26 09:07:17;;;;;;;;;;;;;;;29.41;37.06;95846.69;5050359;28;19928;-74
2023/06/26 09:09:44;;;;;;;;;;;;;;;29.63;36.59;95839.22;5049895;28;19929;-75
2023/06/26 09:12:11;;;;;;;;;;;;;;;29.38;36.89;95847.13;5051853;28;19935;-76
2023/06/26 09:14:37;;;;;;;;;;;;;;;29.38;37.54;95847.13;5046586;28;19932;-75
2023/06/26 09:17:04;;;;;;;;;;;;;;;29.22;36.50;95839.56;5044653;28;20470;-74
2023/06/26 09:19:30;;;;;;;;;;;;;;;29.06;37.76;95846.19;5043250;28;19933;-75
2023/06/26 09:21:57;;;;;;;;;;;;;;;29.28;38.44;95842.22;5048309;28;19929;-75
2023/06/26 09:24:23;;;;;;;;;;;;;;;29.78;36.37;95847.75;5049571;28;19929;-75
2023/06/26 09:26:51;;;;;;;;;;;;;;;29.96;36.50;95843.53;5048302;28;19932;-75
2023/06/26 09:29:18;;;;;;;;;;;;;;;29.82;36.54;95846.28;5041295;28;19925;-75
2023/06/26 09:31:44;;;;;;;;;;;;;;;29.94;36.11;95842.94;5050198;28;19929;-75
2023/06/26 09:34:11;;;;;;;;;;;;;;;29.84;36.25;95846.88;5046933;28;19975;-75
2023/06/26 09:36:37;;;;;;;;;;;;;;;29.60;35.84;95840.47;5045033;28;19929;-75
2023/06/26 09:39:08;;;;;;;;;;;;;;;29.71;36.19;95849.66;5047541;28;19929;-76
2023/06/26 09:41:34;;;;;;;;;;;;;;;29.59;36.77;95857.53;5048531;28;19935;-75
2023/06/26 09:44:03;;;;;;;;;;;;;;;29.52;36.88;95854.03;5050655;28;19928;-75
2023/06/26 09:46:30;;;;;;;;;;;;;;;29.29;37.39;95859.03;5047834;28;19933;-74
2023/06/26 09:48:59;;;;;;;;;;;;;;;29.05;40.67;95855.22;5041377;28;19924;-74
2023/06/26 09:51:26;;;;;;;;;;;;;;;28.53;44.34;95864.94;5049351;28;19947;-74
2023/06/26 09:53:53;;;;;;;;;;;;;;;27.82;46.92;95870.78;5039117;28;20063;-74
2023/06/26 09:56:19;;;;;;;;;;;;;;;27.83;46.14;95869.75;5048629;28;19936;-73
2023/06/26 09:58:45;;;;;;;;;;;;;;;27.34;48.71;95881.44;5050363;28;20019;-74
2023/06/26 10:01:13;;;;;;;;;;;;;;;26.93;49.87;95882.22;5049339;28;19924;-74
2023/06/26 10:03:40;;;;;;;;;;;;;;;26.83;51.98;95884.41;5040341;28;19929;-74
2023/06/26 10:06:07;;;;;;;;;;;;;;;27.09;51.39;95886.41;5050106;28;19948;-74
2023/06/26 10:08:35;;;;;;;;;;;;;;;27.01;51.64;95898.00;5046852;28;19937;-74
2023/06/26 10:11:01;;;;;;;;;;;;;;;26.65;53.08;95904.31;5049937;28;19929;-74
2023/06/26 10:13:31;;;;;;;;;;;;;;;26.65;53.01;95898.16;5040478;28;19929;-73
2023/06/26 10:16:00;;;;;;;;;;;;;;;26.92;52.43;95896.50;5040740;28;19932;-74
2023/06/26 10:18:28;;;;;;;;;;;;;;;27.26;51.08;95901.88;5043237;28;20299;-76
2023/06/26 10:20:56;;;;;;;;;;;;;;;27.51;51.41;95904.00;5039846;28;19935;-75
2023/06/26 10:23:24;;;;;;;;;;;;;;;27.59;50.72;95895.03;5047890;28;20354;-74
2023/06/26 10:25:52;;;;;;;;;;;;;;;27.65;50.11;95900.38;5044669;28;19956;-75
2023/06/26 10:28:19;;;;;;;;;;;;;;;27.60;48.68;95899.34;5046404;28;20306;-77
2023/06/26 10:30:47;;;;;;;;;;;;;;;27.63;48.67;95907.75;5040261;28;19929;-77
2023/06/26 10:33:14;;;;;;;;;;;;;;;27.71;47.98;95907.56;5047620;28;19929;-76
2023/06/26 10:35:45;;;;;;;;;;;;;;;27.35;49.33;95907.00;5046371;28;19933;-75
2023/06/26 10:38:11;;;;;;;;;;;;;;;27.11;51.29;95909.16;5043768;28;19928;-77
2023/06/26 10:40:41;;;;;;;;;;;;;;;27.26;50.84;95912.50;5033468;28;19928;-77
2023/06/26 10:43:08;;;;;;;;;;;;;;;27.52;50.12;95902.19;5045815;28;20004;-76
2023/06/26 10:45:35;;;;;;;;;;;;;;;27.36;50.79;95916.63;5047392;28;20441;-76
2023/06/26 10:48:01;;;;;;;;;;;;;;;27.66;50.00;95918.00;5046605;28;19925;-76
2023/06/26 10:50:28;;;;;;;;;;;;;;;27.19;51.47;95903.66;5051291;28;20302;-77
2023/06/26 10:53:09;;;;;;;;;;;;;;;27.23;53.52;95912.88;5043051;28;19935;-76
2023/06/26 10:55:37;;;;;;;;;;;;;;;27.32;52.35;95916.19;5035940;28;20008;-75
2023/06/26 10:58:03;;;;;;;;;;;;;;;27.41;51.31;95915.03;5043001;28;19932;-75
2023/06/26 11:00:29;;;;;;;;;;;;;;;27.77;51.35;95913.13;5036466;28;21216;-75
2023/06/26 11:02:56;;;;;;;;;;;;;;;27.63;51.55;95912.25;5044124;28;19925;-75
2023/06/26 11:05:26;;;;;;;;;;;;;;;27.88;51.42;95916.03;5043875;28;19925;-75
2023/06/26 11:08:05;;;;;;;;;;;;;;;27.94;50.43;95917.06;5049590;28;20015;-76
2023/06/26 11:10:47;;;;;;;;;;;;;;;27.91;50.37;95920.13;5042854;28;20331;-75
2023/06/26 11:13:14;;;;;;;;;;;;;;;28.19;49.56;95920.81;5049386;28;19955;-75
2023/06/26 11:15:43;;;;;;;;;;;;;;;28.09;49.65;95904.41;5048726;28;19925;-75
2023/06/26 11:18:10;;;;;;;;;;;;;;;27.86;50.99;95911.94;5050412;28;19951;-75
2023/06/26 11:20:36;;;;;;;;;;;;;;;28.25;51.16;95905.03;5048006;28;19979;-74
2023/06/26 11:23:06;;;;;;;;;;;;;;;28.44;50.01;95907.78;5052614;28;19932;-75
2023/06/26 11:25:35;;;;;;;;;;;;;;;28.60;50.74;95908.38;5053582;28;20383;-75
2023/06/26 11:28:01;;;;;;;;;;;;;;;28.33;49.74;95911.00;5053870;28;19925;-74
2023/06/26 11:30:28;;;;;;;;;;;;;;;28.31;50.10;95922.88;5051566;28;19949;-74
2023/06/26 11:33:03;;;;;;;;;;;;;;;28.30;51.15;95922.06;5054249;28;19932;-74
2023/06/26 11:35:30;;;;;;;;;;;;;;;28.23;50.56;95926.56;5047216;28;20283;-74
2023/06/26 11:37:57;;;;;;;;;;;;;;;28.14;51.40;95922.44;5053959;28;20337;-75
2023/06/26 11:40:26;;;;;;;;;;;;;;;27.96;51.73;95939.00;5051842;28;19972;-75
2023/06/26 11:42:53;;;;;;;;;;;;;;;27.90;53.35;95945.13;5048357;28;19928;-75
2023/06/26 11:45:20;;;;;;;;;;;;;;;27.57;55.05;95944.97;5047870;28;19936;-75
2023/06/26 11:47:47;;;;;;;;;;;;;;;27.38;55.96;95946.50;5046245;28;19929;-75
2023/06/26 11:50:16;;;;;;;;;;;;;;;27.48;56.08;95936.34;5050656;28;19998;-75
2023/06/26 11:52:42;;;;;;;;;;;;;;;27.53;56.23;95938.41;5043145;28;19928;-75
2023/06/26 11:55:10;;;;;;;;;;;;;;;27.83;55.01;95944.28;5042432;28;19924;-75
2023/06/26 11:57:36;;;;;;;;;;;;;;;27.47;56.08;95932.84;5047941;28;19947;-75
2023/06/26 12:00:11;;;;;;;;;;;;;;;27.57;56.08;95942.31;5048272;28;20303;-75
2023/06/26 12:02:38;;;;;;;;;;;;;;;27.08;57.68;95946.72;5043180;28;19928;-75
2023/06/26 12:05:07;;;;;;;;;;;;;;;26.90;58.07;95941.06;5052693;28;19932;-75
2023/06/26 12:07:33;;;;;;;;;;;;;;;27.02;58.85;95944.81;5048402;28;19929;-74
2023/06/26 12:10:00;;;;;;;;;;;;;;;27.10;57.84;95942.00;5046383;28;19951;-75
2023/06/26 12:12:27;;;;;;;;;;;;;;;26.97;57.87;95950.72;5046946;28;19989;-75
2023/06/26 12:14:53;;;;;;;;;;;;;;;26.68;57.95;95942.94;5043489;28;19932;-75
2023/06/26 12:17:23;;;;;;;;;;;;;;;26.97;57.38;95944.59;5051144;28;20395;-74
2023/06/26 12:19:49;;;;;;;;;;;;;;;27.37;57.86;95950.19;5045271;28;19929;-74
2023/06/26 12:22:17;;;;;;;;;;;;;;;26.95;56.07;95952.75;5052251;28;20356;-75
2023/06/26 12:24:45;;;;;;;;;;;;;;;27.21;54.76;95941.50;5050574;28;19940;-75
2023/06/26 12:27:12;;;;;;;;;;;;;;;27.37;55.19;95948.34;5045060;28;19924;-74
2023/06/26 12:29:39;;;;;;;;;;;;;;;27.12;55.68;95947.19;5046773;28;19932;-74
2023/06/26 12:32:08;;;;;;;;;;;;;;;27.19;55.21;95948.88;5050387;28;20007;-74
2023/06/26 12:34:35;;;;;;;;;;;;;;;27.62;54.72;95947.84;5052516;28;20322;-75
2023/06/26 12:37:03;;;;;;;;;;;;;;;27.44;53.96;95946.56;5047353;28;19987;-73
2023/06/26 12:39:45;;;;;;;;;;;;;;;27.61;53.87;95939.03;5049749;28;20020;-75
2023/06/26 12:42:14;;;;;;;;;;;;;;;27.47;54.21;95945.31;5045804;28;19924;-76